Time;durP1;ratioP1;P1;durP2;ratioP2;P2;SDS_P1;SDS_P2;PMS_P1;PMS_P2;Temp;Humidity;BMP_temperature;BMP_pressure;BME280_temperature;BME280_humidity;BME280_pressure;Samples;Min_cycle;Max_cycle;Signal;HPM_P1;HPM_P2
2023/05/20 00:00:52;;;;;;;15.50;2.13;;;;;;;17.27;100.00;100475.16;5069943;28;20653;-73
2023/05/20 00:03:20;;;;;;;15.00;2.78;;;;;;;17.20;100.00;100470.81;5072147;28;20202;-73
2023/05/20 00:05:47;;;;;;;14.40;2.10;;;;;;;17.21;100.00;100479.56;5057727;28;20278;-72
2023/05/20 00:08:14;;;;;;;18.05;2.40;;;;;;;17.11;100.00;100478.75;5074538;28;20304;-73
2023/05/20 00:10:41;;;;;;;13.98;1.98;;;;;;;17.05;100.00;100480.53;5073704;28;20267;-73
2023/05/20 00:13:07;;;;;;;15.10;2.30;;;;;;;17.08;100.00;100484.00;5074240;28;20230;-73
2023/05/20 00:15:35;;;;;;;14.10;1.98;;;;;;;17.02;100.00;100470.91;5073736;28;20646;-74
2023/05/20 00:18:03;;;;;;;17.60;2.38;;;;;;;17.08;100.00;100476.16;5035307;28;20287;-73
2023/05/20 00:20:31;;;;;;;17.17;2.33;;;;;;;17.04;100.00;100482.28;5070865;28;20665;-73
2023/05/20 00:22:57;;;;;;;18.73;2.70;;;;;;;17.08;100.00;100477.91;5073497;28;20206;-73
2023/05/20 00:25:24;;;;;;;10.70;1.75;;;;;;;17.01;100.00;100456.09;5073037;28;20631;-74
2023/05/20 00:27:51;;;;;;;16.08;2.33;;;;;;;17.10;100.00;100482.25;5073656;28;20230;-73
2023/05/20 00:30:18;;;;;;;17.23;2.38;;;;;;;17.08;100.00;100484.00;5073205;28;20596;-73
2023/05/20 00:32:45;;;;;;;18.17;2.45;;;;;;;16.95;100.00;100487.56;5026551;28;20199;-73
2023/05/20 00:35:13;;;;;;;15.10;2.05;;;;;;;16.91;100.00;100472.72;5071883;28;20558;-73
2023/05/20 00:37:40;;;;;;;16.20;2.22;;;;;;;16.90;100.00;100478.84;5073853;28;20203;-73
2023/05/20 00:40:08;;;;;;;14.50;1.92;;;;;;;16.85;100.00;100468.41;5073188;28;20312;-73
2023/05/20 00:42:35;;;;;;;18.20;2.42;;;;;;;16.83;100.00;100461.44;5073301;28;20234;-74
2023/05/20 00:45:01;;;;;;;16.02;2.22;;;;;;;16.83;100.00;100450.94;5073509;28;20214;-73
2023/05/20 00:47:32;;;;;;;18.05;2.47;;;;;;;16.48;100.00;100397.84;5072531;28;20191;-73
2023/05/20 00:50:00;;;;;;;15.85;2.17;;;;;;;16.67;100.00;100431.81;5073636;28;20625;-72
2023/05/20 00:52:31;;;;;;;19.67;2.53;;;;;;;16.87;100.00;100444.81;5073117;28;20195;-72
2023/05/20 00:54:58;;;;;;;19.70;2.55;;;;;;;16.83;100.00;100445.72;5072813;28;20253;-72
2023/05/20 00:57:25;;;;;;;19.05;2.45;;;;;;;16.73;100.00;100416.06;5073257;28;20206;-74
2023/05/20 00:59:53;;;;;;;15.32;2.20;;;;;;;16.98;100.00;100437.75;5073014;28;20202;-72
2023/05/20 01:02:20;;;;;;;16.55;2.75;;;;;;;16.92;100.00;100445.66;5073130;28;20199;-73
2023/05/20 01:04:47;;;;;;;16.38;2.20;;;;;;;16.77;100.00;100416.91;5072708;28;20195;-72
2023/05/20 01:07:16;;;;;;;16.83;2.30;;;;;;;16.98;100.00;100445.63;5073041;28;20199;-72
2023/05/20 01:15:24;;;;;;;4.45;1.88;;;;;;;17.23;100.00;100447.22;5087702;27;20550;-73
2023/05/20 01:17:56;;;;;;;7.03;1.92;;;;;;;17.16;100.00;100448.13;5087750;28;20285;-72
2023/05/20 01:20:25;;;;;;;8.75;2.25;;;;;;;16.99;100.00;100444.75;5087551;28;20190;-72
2023/05/20 01:22:56;;;;;;;7.93;2.00;;;;;;;17.06;100.00;100441.22;5053369;28;20225;-72
2023/05/20 01:25:23;;;;;;;8.77;2.03;;;;;;;16.99;100.00;100436.00;5080119;28;20194;-72
2023/05/20 01:27:52;;;;;;;9.70;2.17;;;;;;;16.95;100.00;100443.00;5087604;28;20281;-72
2023/05/20 01:30:20;;;;;;;9.02;2.15;;;;;;;16.93;100.00;100442.16;5068523;28;20201;-72
2023/05/20 01:32:49;;;;;;;7.22;1.88;;;;;;;16.68;100.00;100410.00;5087364;28;20202;-72
2023/05/20 01:35:17;;;;;;;10.30;2.63;;;;;;;16.74;100.00;100427.41;5087551;28;20213;-72
2023/05/20 01:37:45;;;;;;;7.63;1.88;;;;;;;16.77;100.00;100424.78;5087775;28;20657;-72
2023/05/20 01:40:15;;;;;;;9.20;2.08;;;;;;;16.86;100.00;100424.75;5052646;28;20206;-73
2023/05/20 01:42:44;;;;;;;8.90;2.15;;;;;;;16.88;100.00;100424.72;5087585;28;20218;-73
2023/05/20 01:45:11;;;;;;;9.38;2.13;;;;;;;16.30;100.00;100325.50;5086961;28;20222;-73
2023/05/20 01:47:38;;;;;;;6.45;1.70;;;;;;;16.91;100.00;100412.47;5086878;28;20210;-73
2023/05/20 01:50:06;;;;;;;8.30;1.98;;;;;;;16.84;100.00;100413.38;5087503;28;20217;-73
2023/05/20 01:52:33;;;;;;;10.20;2.28;;;;;;;16.87;100.00;100421.25;5035377;28;20210;-72
2023/05/20 01:55:00;;;;;;;1.95;1.10;;;;;;;16.84;100.00;100416.88;5051261;28;20241;-72
2023/05/20 01:57:28;;;;;;;1.27;1.27;;;;;;;16.89;100.00;100414.25;5070686;28;20661;-73
2023/05/20 01:59:55;;;;;;;1.20;1.20;;;;;;;16.79;100.00;100416.06;5087160;28;20202;-72
2023/05/20 02:02:22;;;;;;;1.20;1.20;;;;;;;16.76;100.00;100397.75;5087024;28;20664;-73
2023/05/20 02:04:50;;;;;;;1.25;1.25;;;;;;;16.92;100.00;100418.59;5086581;28;20244;-73
2023/05/20 02:07:18;;;;;;;1.20;1.20;;;;;;;16.83;100.00;100412.53;5068001;28;20202;-72
2023/05/20 02:09:45;;;;;;;1.48;1.38;;;;;;;16.74;100.00;100415.19;5087204;28;20206;-72
2023/05/20 02:12:15;;;;;;;1.30;1.30;;;;;;;16.63;100.00;100385.56;5086781;28;20205;-72
2023/05/20 02:14:44;;;;;;;1.10;1.10;;;;;;;16.81;100.00;100416.03;5050299;28;20778;-72
2023/05/20 02:17:11;;;;;;;1.15;1.15;;;;;;;16.61;100.00;100389.94;5068057;28;20207;-72
2023/05/20 02:19:37;;;;;;;1.10;1.10;;;;;;;16.62;100.00;100404.75;5086828;28;20194;-72
2023/05/20 02:22:04;;;;;;;1.23;1.23;;;;;;;16.73;100.00;100404.75;5086778;28;20205;-72
2023/05/20 02:24:31;;;;;;;2.17;2.08;;;;;;;16.75;100.00;100421.31;5085503;28;20551;-72
2023/05/20 02:26:58;;;;;;;1.73;1.63;;;;;;;16.80;100.00;100420.38;5072974;28;20272;-72
2023/05/20 02:29:25;;;;;;;1.10;1.10;;;;;;;16.79;100.00;100420.41;5073437;28;20206;-72
2023/05/20 02:31:53;;;;;;;1.15;1.15;;;;;;;16.75;100.00;100406.47;5073274;28;20685;-72
2023/05/20 02:34:21;;;;;;;1.20;1.20;;;;;;;16.71;100.00;100411.72;5072953;28;20195;-72
2023/05/20 02:36:48;;;;;;;1.08;1.08;;;;;;;16.71;100.00;100427.41;5073135;28;20202;-72
2023/05/20 02:39:15;;;;;;;1.20;1.20;;;;;;;16.74;100.00;100419.56;5073033;28;20203;-74
2023/05/20 02:41:42;;;;;;;1.10;1.10;;;;;;;16.65;100.00;100417.88;5072843;28;20202;-72
2023/05/20 02:44:09;;;;;;;1.20;1.20;;;;;;;16.75;100.00;100423.91;5072591;28;20219;-72
2023/05/20 02:46:36;;;;;;;1.15;1.15;;;;;;;16.86;100.00;100429.97;5072684;28;20209;-72
2023/05/20 02:49:04;;;;;;;1.15;1.15;;;;;;;16.94;100.00;100428.19;5072642;28;20629;-73
2023/05/20 02:51:32;;;;;;;1.17;1.17;;;;;;;16.83;100.00;100436.13;5072921;28;20199;-73
2023/05/20 02:53:59;;;;;;;1.20;1.20;;;;;;;16.78;100.00;100434.38;5072539;28;20203;-73
2023/05/20 02:56:25;;;;;;;1.10;1.10;;;;;;;16.33;100.00;100363.00;5072783;28;20296;-72
2023/05/20 02:58:52;;;;;;;1.08;1.08;;;;;;;16.72;100.00;100443.16;5072062;28;20203;-73
2023/05/20 03:01:19;;;;;;;1.10;1.10;;;;;;;16.82;100.00;100431.75;5072365;28;20203;-72
2023/05/20 03:03:46;;;;;;;1.23;1.23;;;;;;;16.97;100.00;100448.25;5029794;28;20219;-73
2023/05/20 03:06:14;;;;;;;1.20;1.20;;;;;;;17.01;100.00;100456.09;5063647;28;20206;-73
2023/05/20 03:08:42;;;;;;;1.20;1.20;;;;;;;16.97;100.00;100458.75;5072370;28;20610;-72
2023/05/20 03:11:08;;;;;;;1.20;1.20;;;;;;;17.01;100.00;100458.72;5072084;28;20227;-73
2023/05/20 03:13:35;;;;;;;1.20;1.20;;;;;;;17.15;100.00;100464.75;5072338;28;20227;-73
2023/05/20 03:16:02;;;;;;;1.20;1.20;;;;;;;17.26;100.00;100462.06;5072094;28;20199;-73
2023/05/20 03:18:29;;;;;;;1.20;1.20;;;;;;;17.39;100.00;100473.34;5072509;28;20275;-73
2023/05/20 03:20:56;;;;;;;1.20;1.20;;;;;;;17.52;100.00;100475.00;5072039;28;20211;-73
2023/05/20 03:23:24;;;;;;;1.45;1.45;;;;;;;17.60;100.00;100476.72;5072260;28;20209;-73
2023/05/20 03:25:51;;;;;;;1.10;1.10;;;;;;;17.49;100.00;100475.91;5071987;28;20315;-72
2023/05/20 03:28:18;;;;;;;1.00;1.00;;;;;;;17.56;100.00;100481.97;5036926;28;20206;-73
2023/05/20 03:30:45;;;;;;;1.20;1.20;;;;;;;17.60;100.00;100481.09;5072035;28;20215;-73
2023/05/20 03:33:11;;;;;;;1.20;1.20;;;;;;;17.67;100.00;100480.16;5052856;28;20230;-72
2023/05/20 03:35:38;;;;;;;1.10;1.10;;;;;;;17.60;100.00;100487.22;5071817;28;20248;-73
2023/05/20 03:38:05;;;;;;;1.17;1.17;;;;;;;17.60;100.00;100479.34;5070283;28;20673;-72
2023/05/20 03:40:33;;;;;;;1.23;1.23;;;;;;;17.58;100.00;100464.50;5071002;28;20222;-72
2023/05/20 03:43:00;;;;;;;1.20;1.20;;;;;;;17.84;100.00;100492.28;5070834;28;20681;-72
2023/05/20 03:45:27;;;;;;;1.20;1.20;;;;;;;17.70;100.00;100481.00;5070188;28;20302;-72
2023/05/20 03:47:54;;;;;;;1.10;1.10;;;;;;;17.84;100.00;100489.66;5071127;28;20199;-72
2023/05/20 03:50:21;;;;;;;1.17;1.17;;;;;;;18.08;100.00;100495.59;5071569;28;20528;-73
2023/05/20 03:52:47;;;;;;;1.10;1.10;;;;;;;18.02;100.00;100491.25;5071040;28;20202;-72
2023/05/20 03:55:15;;;;;;;1.30;1.20;;;;;;;18.12;100.00;100500.78;5071292;28;20198;-72
2023/05/20 03:57:43;;;;;;;0.82;0.82;;;;;;;18.22;100.00;100502.47;5071452;28;20230;-72
2023/05/20 04:00:13;;;;;;;1.25;1.15;;;;;;;18.31;100.00;100512.84;5071531;28;20673;-72
2023/05/20 04:02:40;;;;;;;1.30;1.20;;;;;;;18.28;100.00;100507.63;5071202;28;20256;-72
2023/05/20 04:05:09;;;;;;;1.52;1.42;;;;;;;18.40;100.00;100516.28;5071528;28;20222;-72
2023/05/20 04:07:36;;;;;;;1.10;1.10;;;;;;;18.33;100.00;100521.56;5070942;28;20662;-72
2023/05/20 04:10:02;;;;;;;1.30;1.20;;;;;;;18.37;100.00;100521.56;5035848;28;20194;-72
2023/05/20 04:12:31;;;;;;;1.30;1.20;;;;;;;18.24;100.00;100521.69;5071564;28;20206;-74
2023/05/20 04:15:01;;;;;;;1.42;1.33;;;;;;;18.29;100.00;100525.13;5070800;28;20238;-73
2023/05/20 04:17:29;;;;;;;1.30;1.20;;;;;;;18.42;100.00;100525.00;5071091;28;20210;-73
2023/05/20 04:19:58;;;;;;;1.40;1.30;;;;;;;18.22;100.00;100439.47;5071257;28;20197;-74
2023/05/20 04:22:25;;;;;;;1.30;1.20;;;;;;;18.95;100.00;100538.47;5070507;28;20285;-74
2023/05/20 04:24:52;;;;;;;2.33;1.42;;;;;;;19.07;100.00;100547.97;5071067;28;20723;-73
2023/05/20 04:27:19;;;;;;;1.00;1.00;;;;;;;19.20;100.00;100545.16;5070897;28;20207;-70
2023/05/20 04:29:46;;;;;;;1.30;1.20;;;;;;;19.43;100.00;100542.28;5036955;28;20195;-74
2023/05/20 04:32:18;;;;;;;7.20;1.80;;;;;;;19.52;100.00;100544.75;5071144;28;20252;-72
2023/05/20 04:34:45;;;;;;;1.10;1.10;;;;;;;19.14;100.00;100504.94;5064803;28;20226;-73
2023/05/20 04:37:12;;;;;;;1.15;1.15;;;;;;;19.42;100.00;100542.28;5039323;28;20211;-74
2023/05/20 04:39:39;;;;;;;1.40;1.30;;;;;;;19.26;100.00;100517.94;5070465;28;20625;-73
2023/05/20 04:42:06;;;;;;;1.42;1.33;;;;;;;19.77;100.00;100533.00;5070152;28;20199;-73
2023/05/20 04:44:33;;;;;;;1.40;1.30;;;;;;;20.27;100.00;100545.38;5070336;28;20218;-72
2023/05/20 04:47:00;;;;;;;1.55;1.45;;;;;;;21.05;100.00;100536.84;5070660;28;20202;-73
2023/05/20 04:49:29;;;;;;;1.40;1.30;;;;;;;21.95;100.00;100554.28;5069903;28;20587;-72
2023/05/20 04:51:55;;;;;;;1.35;1.25;;;;;;;22.32;100.00;100554.25;5067645;28;20234;-73
2023/05/20 04:54:22;;;;;;;1.35;1.25;;;;;;;22.17;99.02;100544.06;5068235;28;20209;-73
2023/05/20 04:56:49;;;;;;;1.30;1.20;;;;;;;21.71;100.00;100557.47;5070457;28;20664;-73
2023/05/20 04:59:16;;;;;;;1.23;1.20;;;;;;;21.97;100.00;100541.91;5070056;28;20198;-76
2023/05/20 05:01:43;;;;;;;1.30;1.20;;;;;;;22.80;98.15;100562.69;5069343;28;20191;-74
2023/05/20 05:04:10;;;;;;;2.03;1.92;;;;;;;22.51;96.25;100565.22;5026666;28;20256;-74
2023/05/20 05:06:38;;;;;;;1.42;1.33;;;;;;;23.11;93.89;100562.72;5070515;28;20199;-72
2023/05/20 05:09:05;;;;;;;1.63;1.52;;;;;;;23.33;89.75;100565.59;5051511;28;20198;-75
2023/05/20 05:11:32;;;;;;;1.40;1.30;;;;;;;23.46;88.51;100561.69;5025914;28;20206;-73
2023/05/20 05:13:59;;;;;;;1.50;1.40;;;;;;;23.52;86.70;100554.44;5067257;28;20304;-75
2023/05/20 05:16:26;;;;;;;1.52;1.38;;;;;;;23.76;84.96;100571.34;5070134;28;20673;-75
2023/05/20 05:18:53;;;;;;;1.35;1.25;;;;;;;23.88;89.34;100568.31;5068971;28;20539;-74
2023/05/20 05:21:19;;;;;;;1.25;1.15;;;;;;;24.26;83.86;100571.56;5058665;28;20256;-74
2023/05/20 05:23:47;;;;;;;1.15;1.15;;;;;;;24.30;80.04;100575.81;5031777;28;20215;-68
2023/05/20 05:26:14;;;;;;;1.70;1.60;;;;;;;24.17;82.39;100549.72;5062910;28;20928;-68
2023/05/20 05:28:42;;;;;;;1.45;1.35;;;;;;;23.74;82.17;100569.66;5056146;28;20944;-68
2023/05/20 05:31:09;;;;;;;1.50;1.40;;;;;;;23.51;85.05;100580.94;5068305;28;20289;-69
2023/05/20 05:33:36;;;;;;;2.10;1.90;;;;;;;23.75;84.18;100588.16;5068470;28;20226;-68
2023/05/20 05:36:04;;;;;;;1.40;1.30;;;;;;;22.81;89.69;100552.97;5068275;28;20202;-69
2023/05/20 05:38:31;;;;;;;1.42;1.33;;;;;;;23.11;86.11;100563.56;5062599;28;20264;-72
2023/05/20 05:40:59;;;;;;;1.30;1.20;;;;;;;22.88;89.66;100573.03;5068800;28;20583;-71
2023/05/20 05:43:26;;;;;;;1.60;1.50;;;;;;;22.21;91.56;100567.72;5069577;28;20211;-68
2023/05/20 05:45:52;;;;;;;1.52;1.42;;;;;;;22.17;94.88;100566.06;5069396;28;20230;-69
2023/05/20 05:48:19;;;;;;;1.50;1.40;;;;;;;22.20;94.90;100573.91;5068641;28;20203;-69
2023/05/20 05:50:46;;;;;;;1.65;1.55;;;;;;;22.70;92.27;100561.19;5068860;28;20292;-69
2023/05/20 05:53:13;;;;;;;1.52;1.42;;;;;;;22.99;88.38;100568.34;5054603;28;20211;-70
2023/05/20 05:55:40;;;;;;;1.40;1.30;;;;;;;23.42;87.69;100563.56;5058719;28;20203;-72
2023/05/20 05:58:08;;;;;;;0.98;0.95;;;;;;;23.04;89.37;100555.84;5055756;28;20208;-69
2023/05/20 06:00:35;;;;;;;1.55;1.45;;;;;;;23.65;87.27;100576.13;5062777;28;20210;-67
2023/05/20 06:03:01;;;;;;;1.30;1.20;;;;;;;23.56;86.98;100566.66;5060747;28;20273;-69
2023/05/20 06:05:28;;;;;;;1.20;1.10;;;;;;;24.09;83.82;100557.03;5036462;28;20249;-70
2023/05/20 06:07:55;;;;;;;2.03;1.83;;;;;;;23.62;84.54;100569.13;5056016;28;20204;-72
2023/05/20 06:10:22;;;;;;;1.23;1.13;;;;;;;23.71;85.23;100581.22;5066582;28;20625;-71
2023/05/20 06:12:49;;;;;;;1.77;1.67;;;;;;;23.70;84.50;100583.00;5053007;28;20200;-72
2023/05/20 06:15:17;;;;;;;1.38;1.27;;;;;;;23.72;86.35;100582.09;5062146;28;20322;-68
2023/05/20 06:17:44;;;;;;;1.40;1.30;;;;;;;23.60;87.35;100584.19;5068123;28;20268;-68
2023/05/20 06:20:11;;;;;;;1.35;1.25;;;;;;;23.24;89.81;100585.25;5058175;28;20207;-71
2023/05/20 06:22:38;;;;;;;1.50;1.40;;;;;;;22.78;99.50;100579.50;5055261;28;20607;-68
2023/05/20 06:25:05;;;;;;;2.85;2.17;;;;;;;22.73;98.55;100577.84;5057252;28;20223;-69
2023/05/20 06:27:32;;;;;;;1.50;1.40;;;;;;;22.72;100.00;100578.75;5039693;28;20230;-72
2023/05/20 06:29:59;;;;;;;1.60;1.40;;;;;;;22.80;100.00;100575.91;5057758;28;20203;-71
2023/05/20 06:32:27;;;;;;;1.58;1.48;;;;;;;22.21;100.00;100572.13;5072696;28;20207;-70
2023/05/20 06:34:54;;;;;;;1.50;1.33;;;;;;;22.52;100.00;100569.56;5068613;28;20195;-67
2023/05/20 06:37:23;;;;;;;1.40;1.30;;;;;;;22.78;100.00;100564.50;5063043;28;20605;-71
2023/05/20 06:39:52;;;;;;;2.10;1.60;;;;;;;22.85;100.00;100560.78;5054251;28;20354;-71
2023/05/20 06:42:19;;;;;;;1.30;1.20;;;;;;;22.41;99.41;100510.84;5052765;28;20896;-74
2023/05/20 06:44:46;;;;;;;1.42;1.30;;;;;;;22.46;100.00;100551.25;5068000;28;20294;-71
2023/05/20 06:47:14;;;;;;;1.45;1.35;;;;;;;22.25;95.50;100542.09;5067622;28;20210;-71
2023/05/20 06:49:43;;;;;;;1.67;1.33;;;;;;;22.48;95.16;100573.19;5055331;28;20576;-70
2023/05/20 06:52:10;;;;;;;1.83;1.40;;;;;;;22.64;96.91;100571.91;5057633;28;20249;-71
2023/05/20 06:54:40;;;;;;;1.40;1.30;;;;;;;22.72;97.27;100549.66;5066827;28;20205;-71
2023/05/20 06:57:07;;;;;;;3.78;1.92;;;;;;;22.49;97.48;100544.09;5072295;28;20653;-68
2023/05/20 06:59:34;;;;;;;1.83;1.35;;;;;;;22.60;100.00;100575.53;5072142;28;20207;-67
2023/05/20 07:02:01;;;;;;;3.25;1.73;;;;;;;22.79;98.14;100575.97;5071432;28;20210;-70
2023/05/20 07:04:27;;;;;;;2.67;1.60;;;;;;;23.11;95.51;100578.59;5071803;28;20745;-68
2023/05/20 07:06:56;;;;;;;3.92;1.73;;;;;;;23.44;94.17;100580.25;5071628;28;20222;-72
2023/05/20 07:09:22;;;;;;;4.05;1.92;;;;;;;23.78;94.88;100582.78;5071552;28;20211;-72
2023/05/20 07:11:49;;;;;;;4.22;1.95;;;;;;;23.86;98.19;100570.16;5071321;28;20195;-72
2023/05/20 07:14:16;;;;;;;2.85;1.55;;;;;;;24.13;97.23;100581.69;5071976;28;20258;-73
2023/05/20 07:16:43;;;;;;;2.53;1.50;;;;;;;24.18;95.56;100572.69;5071549;28;20705;-73
2023/05/20 07:19:10;;;;;;;3.38;1.60;;;;;;;24.15;96.66;100556.84;5071896;28;20207;-73
2023/05/20 07:21:37;;;;;;;3.35;1.58;;;;;;;23.71;96.88;100504.44;5071451;28;20222;-71
2023/05/20 07:24:05;;;;;;;2.78;1.40;;;;;;;23.88;97.39;100597.44;5071810;28;20201;-73
2023/05/20 07:26:35;;;;;;;3.03;1.45;;;;;;;23.50;100.00;100587.16;5071442;28;20248;-72
2023/05/20 07:29:02;;;;;;;4.55;1.88;;;;;;;22.85;100.00;100589.88;5063013;28;20261;-72
2023/05/20 07:31:29;;;;;;;4.50;1.67;;;;;;;22.70;100.00;100598.22;5065733;28;20203;-73
2023/05/20 07:33:56;;;;;;;5.38;1.90;;;;;;;22.62;100.00;100590.44;5071618;28;20210;-73
2023/05/20 07:36:23;;;;;;;5.05;1.88;;;;;;;22.74;100.00;100599.88;5071494;28;20203;-73
2023/05/20 07:38:49;;;;;;;3.47;1.60;;;;;;;22.92;100.00;100596.72;5071514;28;20207;-73
2023/05/20 07:41:18;;;;;;;4.07;1.60;;;;;;;23.13;100.00;100585.56;5070922;28;20673;-73
2023/05/20 07:43:44;;;;;;;4.30;1.60;;;;;;;23.28;100.00;100600.13;5071595;28;20279;-73
2023/05/20 07:46:11;;;;;;;4.28;1.60;;;;;;;23.20;100.00;100600.34;5070969;28;20287;-73
2023/05/20 07:48:38;;;;;;;2.67;1.40;;;;;;;22.97;100.00;100602.75;5071375;28;20191;-73
2023/05/20 07:51:05;;;;;;;4.22;1.63;;;;;;;23.09;100.00;100575.97;5071080;28;20203;-72
2023/05/20 07:53:32;;;;;;;3.58;1.60;;;;;;;23.07;98.45;100588.38;5035865;28;20208;-72
2023/05/20 07:55:59;;;;;;;4.15;1.98;;;;;;;22.63;99.00;100586.03;5071001;28;20199;-72
2023/05/20 07:58:27;;;;;;;5.93;2.33;;;;;;;22.67;100.00;100582.44;5071232;28;20209;-72
2023/05/20 08:00:54;;;;;;;4.30;1.60;;;;;;;22.76;100.00;100561.00;5070764;28;20639;-72
2023/05/20 08:03:22;;;;;;;2.83;1.30;;;;;;;22.53;99.24;100560.75;5070872;28;20203;-72
2023/05/20 08:05:48;;;;;;;3.53;1.50;;;;;;;22.69;100.00;100570.91;5070769;28;20222;-72
2023/05/20 08:08:16;;;;;;;3.35;1.52;;;;;;;22.88;98.87;100560.69;5065900;28;20671;-73
2023/05/20 08:10:42;;;;;;;4.57;1.88;;;;;;;22.94;100.00;100543.78;5059905;28;20230;-77
2023/05/20 08:13:09;;;;;;;3.38;1.60;;;;;;;22.81;100.00;100543.25;5035384;28;20257;-79
2023/05/20 08:15:37;;;;;;;3.90;1.50;;;;;;;22.90;100.00;100550.09;5071259;28;20268;-78
2023/05/20 08:18:04;;;;;;;4.97;1.92;;;;;;;22.82;100.00;100541.50;5071539;28;20265;-77
2023/05/20 08:20:31;;;;;;;3.63;1.48;;;;;;;22.94;100.00;100552.56;5065342;28;20203;-77
2023/05/20 08:22:58;;;;;;;2.97;1.45;;;;;;;22.92;99.74;100545.59;5070967;28;20280;-76
2023/05/20 08:25:25;;;;;;;5.05;1.85;;;;;;;22.42;97.07;100502.00;5070139;28;20207;-74
2023/05/20 08:27:51;;;;;;;5.43;1.90;;;;;;;22.30;100.00;100545.47;5070409;28;20586;-73
2023/05/20 08:30:18;;;;;;;5.15;1.95;;;;;;;22.04;100.00;100546.16;5056343;28;20198;-72
2023/05/20 08:32:47;;;;;;;3.67;1.60;;;;;;;22.12;100.00;100543.28;5070009;28;20206;-72
2023/05/20 08:35:14;;;;;;;4.65;1.75;;;;;;;21.94;100.00;100528.75;5070506;28;20260;-70
2023/05/20 08:37:41;;;;;;;3.92;1.65;;;;;;;21.74;100.00;100533.63;5063530;28;20293;-72
2023/05/20 08:40:10;;;;;;;4.28;1.63;;;;;;;21.64;100.00;100534.75;5070224;28;20280;-70
2023/05/20 08:42:41;;;;;;;4.18;1.58;;;;;;;21.75;100.00;100538.88;5070246;28;20228;-72
2023/05/20 08:45:11;;;;;;;3.25;1.58;;;;;;;21.72;100.00;100536.28;5070168;28;20726;-72
2023/05/20 08:47:41;;;;;;;3.78;1.63;;;;;;;21.84;100.00;100535.13;5070211;28;20617;-74
2023/05/20 08:50:11;;;;;;;4.03;1.67;;;;;;;21.99;100.00;100518.09;5070500;28;20636;-72
2023/05/20 08:52:42;;;;;;;3.53;1.55;;;;;;;22.04;100.00;100532.06;5069456;28;20233;-73
2023/05/20 08:55:11;;;;;;;4.10;1.63;;;;;;;22.02;100.00;100518.00;5070419;28;20267;-71
2023/05/20 08:57:40;;;;;;;3.42;1.42;;;;;;;21.86;100.00;100493.75;5065445;28;20207;-72
2023/05/20 09:00:12;;;;;;;4.60;1.70;;;;;;;22.11;100.00;100508.09;5060283;28;20285;-71
2023/05/20 09:02:39;;;;;;;4.93;1.80;;;;;;;21.90;100.00;100497.19;5061175;28;20625;-72
2023/05/20 09:05:07;;;;;;;5.15;1.90;;;;;;;21.86;100.00;100461.19;5055463;28;20199;-73
2023/05/20 09:07:35;;;;;;;5.03;1.80;;;;;;;22.04;100.00;100487.16;5059405;28;20308;-74
2023/05/20 09:10:02;;;;;;;3.67;1.50;;;;;;;22.01;100.00;100463.47;5053590;28;20214;-74
2023/05/20 09:12:29;;;;;;;4.13;1.58;;;;;;;22.58;100.00;100483.03;5022625;28;20618;-74
2023/05/20 09:14:56;;;;;;;3.58;1.63;;;;;;;22.45;95.38;100446.44;5056747;28;20242;-74
2023/05/20 09:17:23;;;;;;;3.75;1.65;;;;;;;22.43;95.79;100467.63;5060266;28;20214;-76
2023/05/20 09:19:50;;;;;;;4.07;1.80;;;;;;;22.06;96.15;100399.06;5062249;28;20209;-75
2023/05/20 09:22:22;;;;;;;2.78;1.30;;;;;;;22.29;96.79;100471.53;5055509;28;20356;-73
2023/05/20 09:24:51;;;;;;;4.53;1.73;;;;;;;22.51;96.61;100470.06;5053550;28;20531;-74
2023/05/20 09:27:18;;;;;;;6.60;2.42;;;;;;;22.88;91.11;100470.78;5061906;28;20227;-76
2023/05/20 09:29:45;;;;;;;9.60;2.10;;;;;;;22.99;90.56;100466.03;5066859;28;20199;-79
2023/05/20 09:32:12;;;;;;;9.52;2.13;;;;;;;23.24;90.86;100447.66;5069607;28;20944;-77
2023/05/20 09:34:40;;;;;;;8.57;1.85;;;;;;;23.55;89.49;100484.63;5065670;28;20226;-79
2023/05/20 09:37:08;;;;;;;9.23;2.03;;;;;;;23.67;91.04;100465.72;5073535;28;20230;-81
2023/05/20 09:39:44;;;;;;;7.90;1.98;;;;;;;24.17;93.83;100486.13;5073410;28;20237;-81
2023/05/20 09:42:18;;;;;;;8.45;1.88;;;;;;;24.40;89.83;100492.44;5073675;28;20213;-80
2023/05/20 09:44:47;;;;;;;8.95;2.05;;;;;;;24.14;90.92;100499.50;5073811;28;20213;-80
2023/05/20 09:47:15;;;;;;;9.77;2.10;;;;;;;24.47;93.18;100504.56;5074233;28;20222;-81
2023/05/20 09:49:43;;;;;;;8.00;1.98;;;;;;;24.68;90.61;100509.91;5073738;28;20722;-76
2023/05/20 09:52:10;;;;;;;8.35;1.83;;;;;;;24.94;91.33;100511.66;5073732;28;21765;-70
2023/05/20 09:54:37;;;;;;;6.50;1.75;;;;;;;24.48;90.80;100483.25;5072805;28;20238;-68
2023/05/20 09:57:07;;;;;;;5.72;1.67;;;;;;;24.84;89.25;100494.38;5072925;28;20199;-69
2023/05/20 09:59:36;;;;;;;8.75;2.28;;;;;;;25.23;85.34;100518.53;5073367;28;20206;-70
2023/05/20 10:02:04;;;;;;;9.20;2.13;;;;;;;25.31;84.15;100515.59;5072687;28;20214;-71
2023/05/20 10:04:33;;;;;;;5.40;1.48;;;;;;;25.08;84.89;100514.66;5073310;28;20207;-72
2023/05/20 10:07:20;;;;;;;9.98;2.17;;;;;;;25.43;84.11;100521.31;5073143;28;20229;-74
2023/05/20 10:09:59;;;;;;;7.28;1.80;;;;;;;25.52;81.91;100504.16;5067320;28;20730;-72
2023/05/20 10:12:35;;;;;;;12.23;2.53;;;;;;;25.70;79.99;100524.69;5060665;28;20203;-71
2023/05/20 10:15:16;;;;;;;7.15;1.73;;;;;;;25.55;79.77;100499.59;5052384;28;20227;-73
2023/05/20 10:17:53;;;;;;;10.15;2.20;;;;;;;25.25;80.48;100523.81;5064446;28;20203;-77
2023/05/20 10:20:22;;;;;;;9.07;2.72;;;;;;;25.44;80.68;100520.38;5066084;28;20205;-79
2023/05/20 10:22:56;;;;;;;8.57;2.08;;;;;;;25.80;78.07;100520.72;5057610;28;20269;-79
2023/05/20 10:25:27;;;;;;;6.70;1.70;;;;;;;25.73;78.71;100527.22;5065678;28;20198;-79
2023/05/20 10:28:06;;;;;;;8.00;1.85;;;;;;;25.28;76.42;100521.03;5065764;28;20223;-75
2023/05/20 10:30:34;;;;;;;10.93;2.20;;;;;;;25.39;77.68;100524.13;5061317;28;20281;-76
2023/05/20 10:33:05;;;;;;;7.25;1.77;;;;;;;25.14;77.19;100519.78;5072524;28;20640;-76
2023/05/20 10:35:32;;;;;;;7.50;1.95;;;;;;;24.95;79.05;100507.22;5071342;28;20665;-77
2023/05/20 10:38:09;;;;;;;10.30;2.13;;;;;;;24.94;77.19;100509.00;5071451;28;20620;-76
2023/05/20 10:40:36;;;;;;;8.00;1.95;;;;;;;24.48;78.65;100511.56;5072149;28;20190;-76
2023/05/20 10:43:10;;;;;;;7.35;1.80;;;;;;;24.26;81.42;100515.91;5070610;28;20202;-70
2023/05/20 10:45:48;;;;;;;5.53;1.48;;;;;;;24.43;79.29;100513.53;5018063;28;20231;-69
2023/05/20 10:48:21;;;;;;;6.88;2.10;;;;;;;23.98;80.55;100476.16;5054329;28;20283;-69
2023/05/20 10:50:48;;;;;;;7.53;1.77;;;;;;;24.05;77.63;100507.69;5052492;28;20237;-69
2023/05/20 10:53:15;;;;;;;8.48;2.55;;;;;;;23.98;78.92;100500.88;5054672;28;20211;-69
2023/05/20 10:55:50;;;;;;;7.75;2.03;;;;;;;24.34;80.62;100503.22;5056713;28;20211;-69
2023/05/20 10:58:17;;;;;;;7.30;1.85;;;;;;;24.15;73.42;100495.06;5065603;28;20241;-70
2023/05/20 11:00:47;;;;;;;7.38;1.73;;;;;;;24.41;74.49;100495.00;5054818;28;20717;-69
2023/05/20 11:03:15;;;;;;;6.32;1.70;;;;;;;24.40;75.39;100492.44;5060499;28;20211;-68
2023/05/20 11:05:44;;;;;;;8.20;1.92;;;;;;;24.33;71.54;100485.59;5065063;28;20195;-68
2023/05/20 11:08:11;;;;;;;11.43;2.17;;;;;;;24.34;74.74;100482.00;5058412;28;20318;-69
2023/05/20 11:10:38;;;;;;;9.52;2.00;;;;;;;24.47;77.99;100472.72;5055510;28;20204;-70
2023/05/20 11:13:05;;;;;;;6.95;1.80;;;;;;;24.68;76.78;100466.66;5058563;28;20203;-69
2023/05/20 11:15:32;;;;;;;7.82;1.80;;;;;;;24.49;74.58;100465.56;5058432;28;20237;-69
2023/05/20 11:18:03;;;;;;;8.55;2.13;;;;;;;24.61;75.54;100449.22;5061342;28;20205;-68
2023/05/20 11:20:34;;;;;;;11.48;2.38;;;;;;;24.29;72.92;100454.81;5059111;28;20215;-69
2023/05/20 11:23:02;;;;;;;7.07;1.88;;;;;;;23.25;72.58;100295.91;5060400;28;20286;-69
2023/05/20 11:25:29;;;;;;;7.82;1.88;;;;;;;24.16;73.05;100457.88;5051608;28;20293;-70
2023/05/20 11:27:56;;;;;;;7.80;2.05;;;;;;;24.25;71.45;100440.81;5057613;28;20227;-69